createdAt,value
2022-09-18T00:01:46.697Z,8.40
2022-09-18T00:05:50.854Z,8.30
2022-09-18T00:09:53.577Z,8.50
2022-09-18T00:13:57.012Z,8.50
2022-09-18T00:17:59.855Z,8.40
2022-09-18T00:22:03.938Z,8.70
2022-09-18T00:26:07.848Z,8.50
2022-09-18T00:30:11.731Z,8.40
2022-09-18T00:34:16.645Z,8.40
2022-09-18T00:38:20.702Z,8.40
2022-09-18T00:42:23.418Z,8.40
2022-09-18T00:46:30.317Z,8.50
2022-09-18T00:50:33.213Z,8.40
2022-09-18T00:54:39.293Z,8.60
2022-09-18T00:58:42.718Z,8.70
2022-09-18T01:02:48.528Z,8.40
2022-09-18T01:06:55.555Z,8.50
2022-09-18T01:11:10.367Z,8.60
2022-09-18T01:15:20.107Z,8.50
2022-09-18T01:19:38.174Z,8.50
2022-09-18T01:24:16.998Z,8.30
2022-09-18T01:28:26.110Z,8.40
2022-09-18T01:32:32.739Z,8.70
2022-09-18T01:36:38.994Z,8.50
2022-09-18T01:40:45.725Z,8.40
2022-09-18T01:44:54.757Z,8.50
2022-09-18T01:49:02.638Z,8.40
2022-09-18T01:53:10.098Z,8.60
2022-09-18T01:57:18.435Z,8.30
2022-09-18T02:01:28.802Z,8.50
2022-09-18T02:05:36.979Z,8.50
2022-09-18T02:09:40.115Z,8.50
2022-09-18T02:13:49.223Z,8.30
2022-09-18T02:17:59.627Z,8.30
2022-09-18T02:22:17.302Z,8.50
2022-09-18T02:26:22.412Z,8.50
2022-09-18T02:30:27.768Z,8.40
2022-09-18T02:34:32.806Z,8.50
2022-09-18T02:38:46.023Z,8.60
2022-09-18T02:42:57.310Z,8.60
2022-09-18T02:47:12.246Z,8.40
2022-09-18T02:51:28.502Z,8.60
2022-09-18T02:55:43.081Z,8.40
2022-09-18T02:59:48.915Z,8.40
2022-09-18T03:03:53.753Z,8.60
2022-09-18T03:08:09.247Z,8.50
2022-09-18T03:12:16.203Z,8.60
2022-09-18T03:16:23.754Z,8.70
2022-09-18T03:20:26.802Z,8.60
2022-09-18T03:24:31.084Z,8.60
2022-09-18T03:28:34.563Z,8.60
2022-09-18T03:32:37.959Z,8.70
2022-09-18T03:36:43.437Z,8.60
2022-09-18T03:40:48.095Z,8.60
2022-09-18T03:44:52.349Z,8.60
2022-09-18T03:49:02.481Z,8.50
2022-09-18T03:53:09.390Z,8.40
2022-09-18T03:57:22.154Z,8.50
2022-09-18T04:01:47.795Z,8.50
2022-09-18T04:06:02.884Z,8.60
2022-09-18T04:10:26.144Z,8.50
2022-09-18T04:14:30.490Z,8.70
2022-09-18T04:18:34.711Z,8.60
2022-09-18T04:22:38.945Z,8.70
2022-09-18T04:26:43.183Z,8.60
2022-09-18T04:30:48.654Z,8.60
2022-09-18T04:34:52.113Z,8.70
2022-09-18T04:38:56.431Z,8.70
2022-09-18T04:42:59.227Z,8.70
2022-09-18T04:47:04.502Z,8.60
2022-09-18T04:51:07.375Z,8.60
2022-09-18T04:55:22.246Z,8.80
2022-09-18T04:59:25.830Z,8.70
2022-09-18T05:03:34.142Z,8.70
2022-09-18T05:07:37.013Z,8.80
2022-09-18T05:11:39.939Z,8.60
2022-09-18T05:15:43.060Z,8.70
2022-09-18T05:19:47.361Z,8.60
2022-09-18T05:23:56.961Z,8.70
2022-09-18T05:28:01.090Z,8.80
2022-09-18T05:32:09.169Z,8.80
2022-09-18T05:36:14.830Z,8.80
2022-09-18T05:40:17.864Z,8.90
2022-09-18T05:44:21.173Z,8.80
2022-09-18T05:48:24.759Z,8.80
2022-09-18T05:52:28.880Z,8.70
2022-09-18T05:56:31.637Z,8.90
2022-09-18T06:00:36.259Z,8.80
2022-09-18T06:04:45.627Z,8.80
2022-09-18T06:08:50.838Z,8.90
2022-09-18T06:13:01.538Z,8.90
2022-09-18T06:17:04.350Z,9.00
2022-09-18T06:21:10.078Z,9.00
2022-09-18T06:25:16.665Z,9.10
2022-09-18T06:29:19.373Z,9.10
2022-09-18T06:33:26.786Z,9.00
2022-09-18T06:37:29.529Z,9.00
2022-09-18T06:41:46.629Z,9.00
2022-09-18T06:45:59.554Z,9.00
2022-09-18T06:50:08.927Z,9.00
2022-09-18T06:54:12.032Z,9.00
2022-09-18T06:58:17.351Z,9.10
2022-09-18T07:02:20.217Z,9.00
2022-09-18T07:06:30.218Z,9.00
2022-09-18T07:10:33.197Z,9.00
2022-09-18T07:14:37.745Z,9.20
2022-09-18T07:18:49.103Z,9.20
2022-09-18T07:22:55.269Z,9.30
2022-09-18T07:27:04.217Z,9.20
2022-09-18T07:31:08.370Z,9.20
2022-09-18T07:35:12.622Z,9.30
2022-09-18T07:39:15.454Z,9.30
2022-09-18T07:43:50.340Z,9.20
2022-09-18T07:47:55.279Z,9.40
2022-09-18T07:51:58.019Z,9.40
2022-09-18T07:56:00.801Z,9.60
2022-09-18T08:00:06.559Z,9.40
2022-09-18T08:04:19.257Z,9.50
2022-09-18T08:08:42.190Z,9.50
2022-09-18T08:13:10.906Z,9.50
2022-09-18T08:17:45.162Z,9.40
2022-09-18T08:22:12.643Z,9.50
2022-09-18T08:26:22.497Z,9.50
2022-09-18T08:30:27.231Z,9.60
2022-09-18T08:34:32.225Z,9.60
2022-09-18T08:38:36.971Z,9.60
2022-09-18T08:43:07.578Z,9.70
2022-09-18T08:47:16.361Z,9.80
2022-09-18T08:51:28.277Z,9.80
2022-09-18T08:55:37.554Z,9.90
2022-09-18T09:00:01.570Z,10.10
2022-09-18T09:04:08.389Z,10.20
2022-09-18T09:08:33.178Z,10.20
2022-09-18T09:12:45.607Z,10.30
2022-09-18T09:16:52.559Z,10.40
2022-09-18T09:20:56.534Z,10.30
2022-09-18T09:25:06.623Z,10.20
2022-09-18T09:29:32.819Z,10.20
2022-09-18T09:33:38.756Z,10.30
2022-09-18T09:38:02.698Z,10.40
2022-09-18T09:42:12.242Z,10.50
2022-09-18T09:46:52.701Z,10.50
2022-09-18T09:51:05.768Z,10.60
2022-09-18T09:55:21.506Z,10.60
2022-09-18T09:59:34.258Z,10.60
2022-09-18T10:04:02.811Z,10.70
2022-09-18T10:08:15.429Z,10.80
2022-09-18T10:12:27.658Z,10.90
2022-09-18T10:16:37.863Z,10.90
2022-09-18T10:20:46.591Z,11.00
2022-09-18T10:24:54.031Z,11.40
2022-09-18T10:28:56.865Z,11.50
2022-09-18T10:33:00.302Z,11.30
2022-09-18T10:37:19.275Z,11.40
2022-09-18T10:41:34.979Z,11.50
2022-09-18T10:45:42.031Z,11.60
2022-09-18T10:50:02.037Z,11.50
2022-09-18T10:54:17.492Z,11.70
2022-09-18T10:58:32.099Z,11.60
2022-09-18T11:02:40.530Z,11.40
2022-09-18T11:06:46.784Z,11.30
2022-09-18T11:11:07.251Z,11.20
2022-09-18T11:15:17.798Z,11.10
2022-09-18T11:19:28.469Z,11.40
2022-09-18T11:23:34.717Z,11.70
2022-09-18T11:27:49.751Z,11.80
2022-09-18T11:31:56.241Z,11.70
2022-09-18T11:36:04.389Z,11.80
2022-09-18T11:40:15.730Z,11.70
2022-09-18T11:44:25.261Z,11.50
2022-09-18T11:48:33.413Z,11.50
2022-09-18T11:52:40.142Z,11.30
2022-09-18T11:56:47.980Z,11.30
2022-09-18T12:01:05.273Z,11.30
2022-09-18T12:05:20.080Z,11.20
2022-09-18T12:09:32.420Z,11.10
2022-09-18T12:13:46.925Z,11.00
2022-09-18T12:17:55.236Z,11.00
2022-09-18T12:22:03.586Z,10.90
2022-09-18T12:26:12.918Z,11.10
2022-09-18T12:30:31.422Z,11.60
2022-09-18T12:34:43.521Z,11.70
2022-09-18T12:39:03.082Z,11.50
2022-09-18T12:43:21.355Z,11.30
2022-09-18T12:47:37.459Z,11.20
2022-09-18T12:51:48.110Z,11.10
2022-09-18T12:56:03.484Z,10.90
2022-09-18T13:00:11.426Z,11.10
2022-09-18T13:04:20.274Z,11.80
2022-09-18T13:08:28.817Z,12.30
2022-09-18T13:12:37.693Z,12.10
2022-09-18T13:16:50.181Z,12.20
2022-09-18T13:20:54.853Z,12.90
2022-09-18T13:24:59.353Z,12.80
2022-09-18T13:29:03.057Z,12.50
2022-09-18T13:33:05.937Z,12.70
2022-09-18T13:37:16.797Z,12.70
2022-09-18T13:41:21.297Z,13.60
2022-09-18T13:45:26.072Z,13.90
2022-09-18T13:49:31.924Z,14.00
2022-09-18T13:53:41.651Z,14.00
2022-09-18T13:57:46.170Z,13.80
2022-09-18T14:02:02.316Z,13.80
2022-09-18T14:06:42.486Z,13.40
2022-09-18T14:11:16.728Z,13.20
2022-09-18T14:15:24.527Z,13.10
2022-09-18T14:19:32.065Z,13.10
2022-09-18T14:24:06.408Z,12.90
2022-09-18T14:28:09.313Z,12.80
2022-09-18T14:32:19.745Z,12.60
2022-09-18T14:36:22.517Z,12.50
2022-09-18T14:40:27.336Z,12.40
2022-09-18T14:44:32.397Z,12.30
2022-09-18T14:48:38.910Z,12.30
2022-09-18T14:52:42.725Z,12.60
2022-09-18T14:56:45.485Z,12.60
2022-09-18T15:00:55.042Z,12.60
2022-09-18T15:05:00.031Z,12.50
2022-09-18T15:09:03.386Z,12.30
2022-09-18T15:13:08.444Z,12.30
2022-09-18T15:17:19.019Z,12.30
2022-09-18T15:21:29.852Z,12.20
2022-09-18T15:25:39.067Z,12.10
2022-09-18T15:29:46.317Z,12.20
2022-09-18T15:33:56.089Z,12.00
2022-09-18T15:38:03.753Z,12.00
2022-09-18T15:42:20.970Z,11.90
2022-09-18T15:46:28.760Z,11.90
2022-09-18T15:50:37.834Z,11.90
2022-09-18T15:55:04.065Z,11.80
2022-09-18T15:59:09.025Z,11.80
2022-09-18T16:03:19.793Z,11.70
2022-09-18T16:07:25.417Z,11.60
2022-09-18T16:11:53.504Z,11.60
2022-09-18T16:16:22.723Z,11.50
2022-09-18T16:20:31.588Z,11.50
2022-09-18T16:24:34.335Z,11.40
2022-09-18T16:28:42.566Z,11.40
2022-09-18T16:32:45.294Z,11.50
2022-09-18T16:36:48.234Z,11.40
2022-09-18T16:40:51.085Z,11.40
2022-09-18T16:44:55.142Z,11.40
2022-09-18T16:48:58.195Z,11.40
2022-09-18T16:53:01.763Z,11.40
2022-09-18T16:57:07.719Z,11.30
2022-09-18T17:01:11.812Z,11.30
2022-09-18T17:05:14.943Z,11.30
2022-09-18T17:09:17.609Z,11.30
2022-09-18T17:13:20.319Z,11.30
2022-09-18T17:17:24.361Z,11.30
2022-09-18T17:21:27.033Z,11.20
2022-09-18T17:25:30.417Z,11.20
2022-09-18T17:29:33.182Z,11.20
2022-09-18T17:33:37.804Z,11.20
2022-09-18T17:37:40.953Z,11.20
2022-09-18T17:41:44.859Z,11.20
2022-09-18T17:45:47.550Z,11.10
2022-09-18T17:49:51.747Z,11.10
2022-09-18T17:53:58.817Z,11.00
2022-09-18T17:58:01.537Z,11.00
2022-09-18T18:02:04.413Z,11.00
2022-09-18T18:06:10.917Z,11.10
2022-09-18T18:10:13.473Z,11.00
2022-09-18T18:14:16.170Z,10.90
2022-09-18T18:18:19.682Z,10.90
2022-09-18T18:22:23.687Z,11.00
2022-09-18T18:26:27.861Z,10.90
2022-09-18T18:30:31.114Z,11.10
2022-09-18T18:34:33.838Z,10.90
2022-09-18T18:38:38.053Z,10.80
2022-09-18T18:42:40.777Z,11.00
2022-09-18T18:46:44.568Z,10.80
2022-09-18T18:50:47.337Z,10.90
2022-09-18T18:54:51.603Z,10.90
2022-09-18T18:58:57.193Z,10.90
2022-09-18T19:03:02.290Z,10.90
2022-09-18T19:07:05.937Z,10.80
2022-09-18T19:11:09.928Z,10.70
2022-09-18T19:15:12.601Z,10.90
2022-09-18T19:19:16.974Z,10.80
2022-09-18T19:23:20.901Z,10.80
2022-09-18T19:27:24.938Z,10.90
2022-09-18T19:31:29.229Z,10.90
2022-09-18T19:35:35.265Z,10.90
2022-09-18T19:39:38.065Z,10.80
2022-09-18T19:43:42.142Z,10.90
2022-09-18T19:47:48.567Z,10.90
2022-09-18T19:51:51.250Z,10.90
2022-09-18T19:55:53.979Z,10.80
2022-09-18T19:59:59.329Z,10.80
2022-09-18T20:04:02.194Z,10.70
2022-09-18T20:08:06.319Z,10.90
2022-09-18T20:12:09.900Z,10.90
2022-09-18T20:16:13.963Z,10.80
2022-09-18T20:20:16.753Z,10.90
2022-09-18T20:24:20.365Z,10.80
2022-09-18T20:28:23.037Z,10.90
2022-09-18T20:32:27.084Z,11.00
2022-09-18T20:36:32.180Z,11.00
2022-09-18T20:40:35.452Z,11.10
2022-09-18T20:44:38.191Z,11.00
2022-09-18T20:48:45.467Z,10.90
2022-09-18T20:52:48.816Z,11.00
2022-09-18T20:56:51.517Z,11.00
2022-09-18T21:00:55.174Z,11.10
2022-09-18T21:04:59.366Z,11.00
2022-09-18T21:09:06.412Z,11.00
2022-09-18T21:13:13.174Z,11.00
2022-09-18T21:17:15.877Z,11.20
2022-09-18T21:21:20.117Z,11.10
2022-09-18T21:25:24.644Z,11.20
2022-09-18T21:29:29.786Z,11.00
2022-09-18T21:33:37.265Z,11.00
2022-09-18T21:37:41.461Z,10.90
2022-09-18T21:41:46.315Z,11.00
2022-09-18T21:45:49.894Z,11.00
2022-09-18T21:49:52.698Z,10.90
2022-09-18T21:53:59.001Z,10.80
2022-09-18T21:58:01.660Z,10.90
2022-09-18T22:02:04.704Z,10.50
2022-09-18T22:06:07.606Z,10.50
2022-09-18T22:10:11.754Z,10.40
2022-09-18T22:14:16.229Z,10.50
2022-09-18T22:18:19.117Z,10.40
2022-09-18T22:22:21.889Z,10.30
2022-09-18T22:26:28.438Z,10.00
2022-09-18T22:30:31.770Z,10.10
2022-09-18T22:34:35.266Z,10.30
2022-09-18T22:38:37.948Z,10.30
2022-09-18T22:42:42.025Z,10.20
2022-09-18T22:46:46.598Z,10.30
2022-09-18T22:50:49.770Z,10.20
2022-09-18T22:54:52.417Z,10.20
2022-09-18T22:58:57.524Z,10.00
2022-09-18T23:03:00.226Z,9.90
2022-09-18T23:07:03.334Z,10.00
2022-09-18T23:11:08.594Z,10.10
2022-09-18T23:15:12.721Z,10.00
2022-09-18T23:19:19.074Z,10.10
2022-09-18T23:23:21.786Z,10.10
2022-09-18T23:27:24.550Z,9.90
2022-09-18T23:31:30.308Z,10.00
2022-09-18T23:35:33.038Z,9.80
2022-09-18T23:39:35.825Z,9.80
2022-09-18T23:43:39.587Z,9.80
2022-09-18T23:47:43.625Z,9.80
2022-09-18T23:51:47.039Z,9.60
2022-09-18T23:55:50.128Z,9.70
2022-09-18T23:59:53.029Z,9.80
